Sardinia, NY (14134)

10:37 AM EDT on September 03, 2015 (GMT -0400)
Sardinia, NY | | Change Station
CLOSE
Current Station
Personal Weather Station
Location: Chaffee, NY
Elevation: 1394 ft
Nearby Weather Stations

Elev 1394 ft 42.54 °N, 78.50 °W | Updated 8 seconds ago

Mostly Cloudy
Mostly Cloudy
75.2 °F
Feels Like 76 °F
N
2.7
Wind Variable Wind from SSW
Gusts 5.4 mph

Today
High -- | Low -- °F
--% Chance of Precip.
Yesterday
High -- | Low -- °F
Precip. -- in
6:40 AM 7:45 PM
Waning Gibbous, 70% visible
Pressure 30.04 in
Visibility 1.2 miles
Clouds Overcast 200 ft
Heat Index 76 °F
Dew Point 69 °F
Humidity 81%
Rainfall 0.00 in
Snow Depth Not available.
UV 0.0 out of 12
Pollen 10.20 out of 12
Air Quality Not available.
Flu Activity Not available.
METAR KOLE 031415Z AUTO 00000KT 1 1/4SM BR OVC002 20/19 A3004 RMK AO2
Pressure 30.04 in
Visibility 1.2 miles
Clouds Overcast 200 ft
Heat Index 76 °F
Dew Point 69 °F
Humidity 81%
Rainfall 0.00 in
Snow Depth Not available.
UV 0.0 out of 12
Pollen 10.20 out of 12
Air Quality Not available.
Flu Activity Not available.
METAR KOLE 031415Z AUTO 00000KT 1 1/4SM BR OVC002 20/19 A3004 RMK AO2

10-Day Weather Forecast

×

Almanac

Astronomy

Sep. 03, 2015 Rise Set
Actual Time
Civil Twilight
Nautical Twilight
Astronomical Twilight
Moon
Length of Visible Light
Length of Day
Tomorrow will be .
, % of the Moon is Illuminated

Today's Extremes

State Highs State Lows

Community

WunderPhotos

Upload Photos

1,851,960 photos uploaded!

WunderBlogs® & News

Nearby

Air Quality

  Air Quality AQ Index Pollutant
Not available.

Snow Depth

Station Depth Elevation

Earthquake Activity

City Distance Mag. Time & Date
Minimum magnitude displayed is 2.5.

Coastal Water Temperatures

Place Temperature

Stations

Nearby Weather Stations

Station Location Temp. Windchill Dew Point Humidity Wind Precip. Elev Updated Type